Time;durP1;ratioP1;P1;durP2;ratioP2;P2;SDS_P1;SDS_P2;PMS_P1;PMS_P2;Temp;Humidity;BMP_temperature;BMP_pressure;BME280_temperature;BME280_humidity;BME280_pressure;Samples;Min_cycle;Max_cycle;Signal;HPM_P1;HPM_P2
2021/11/08 00:01:45;;;;;;;18.02;4.22;;;;;;;7.07;100.00;100499.28;5062960;28;20128;-63
2021/11/08 00:04:13;;;;;;;22.88;4.78;;;;;;;7.03;100.00;100499.50;5056143;28;20127;-62
2021/11/08 00:06:41;;;;;;;20.58;3.75;;;;;;;7.02;100.00;100505.63;5060771;28;20736;-63
2021/11/08 00:09:08;;;;;;;23.40;4.40;;;;;;;6.98;100.00;100499.72;5059183;28;20067;-63
2021/11/08 00:11:36;;;;;;;23.77;3.97;;;;;;;6.96;100.00;100508.53;5060710;28;20053;-63
2021/11/08 00:14:03;;;;;;;21.23;3.80;;;;;;;6.95;100.00;100505.06;5062738;28;20324;-61
2021/11/08 00:16:37;;;;;;;25.45;3.88;;;;;;;6.95;100.00;100499.00;5057103;28;20063;-62
2021/11/08 00:21:43;;;;;;;17.65;3.88;;;;;;;7.01;100.00;100503.94;5059334;28;20052;-63
2021/11/08 00:24:12;;;;;;;14.38;3.60;;;;;;;6.98;100.00;100504.06;5069616;28;20052;-63
2021/11/08 00:26:40;;;;;;;17.80;3.78;;;;;;;6.92;100.00;100525.31;5062171;28;20095;-63
2021/11/08 00:29:07;;;;;;;21.08;4.32;;;;;;;6.91;100.00;100502.66;5053438;28;20049;-62
2021/11/08 00:31:34;;;;;;;19.88;4.82;;;;;;;6.88;100.00;100508.88;5062554;28;20072;-63
2021/11/08 00:34:02;;;;;;;20.80;3.42;;;;;;;6.86;100.00;100515.97;5057039;28;20049;-62
2021/11/08 00:36:29;;;;;;;17.38;3.80;;;;;;;6.84;100.00;100516.06;5058190;28;20048;-61
2021/11/08 00:38:56;;;;;;;24.52;3.70;;;;;;;6.81;100.00;100510.09;5059400;28;20444;-61
2021/11/08 00:41:23;;;;;;;16.38;3.50;;;;;;;6.80;100.00;100511.03;5052935;28;20059;-63
2021/11/08 00:43:50;;;;;;;22.95;3.78;;;;;;;6.83;100.00;100511.72;5054777;28;20133;-61
2021/11/08 00:46:17;;;;;;;17.27;3.88;;;;;;;6.89;100.00;100513.22;5052695;28;20041;-63
2021/11/08 00:48:45;;;;;;;18.75;3.58;;;;;;;6.89;100.00;100518.47;5061492;28;20044;-63
2021/11/08 00:51:14;;;;;;;19.70;3.70;;;;;;;6.88;100.00;100521.13;5059216;28;20060;-61
2021/11/08 00:53:41;;;;;;;15.60;3.10;;;;;;;6.82;100.00;100525.72;5067748;28;20053;-62
2021/11/08 00:56:14;;;;;;;20.52;3.60;;;;;;;6.89;100.00;100538.50;5052907;28;20127;-63
2021/11/08 00:58:43;;;;;;;19.70;4.15;;;;;;;6.89;100.00;100531.53;5061222;28;20049;-62
2021/11/08 01:01:12;;;;;;;20.15;3.55;;;;;;;6.92;100.00;100536.63;5060481;28;20132;-62
2021/11/08 01:03:43;;;;;;;18.88;3.50;;;;;;;6.94;100.00;100536.56;5061353;28;20539;-63
2021/11/08 01:06:12;;;;;;;19.25;3.53;;;;;;;6.96;100.00;100538.19;5057106;28;20138;-62
2021/11/08 01:08:40;;;;;;;19.65;4.35;;;;;;;6.95;100.00;100541.72;5062910;28;20044;-62
2021/11/08 01:11:08;;;;;;;17.85;3.28;;;;;;;6.91;100.00;100540.16;5056585;28;20056;-63
2021/11/08 01:13:36;;;;;;;13.55;3.10;;;;;;;6.97;100.00;100537.25;5056756;28;20530;-62
2021/11/08 01:16:03;;;;;;;19.58;3.70;;;;;;;6.98;100.00;100544.22;5057523;28;20053;-63
2021/11/08 01:18:31;;;;;;;21.15;3.90;;;;;;;6.99;100.00;100535.44;5050518;28;20075;-63
2021/11/08 01:20:59;;;;;;;18.70;4.70;;;;;;;6.94;100.00;100542.66;5059463;28;20041;-60
2021/11/08 01:23:27;;;;;;;17.27;3.67;;;;;;;7.02;100.00;100550.13;5062276;28;20070;-58
2021/11/08 01:26:06;;;;;;;22.02;4.57;;;;;;;6.99;100.00;100548.50;5053939;28;20063;-61
2021/11/08 01:28:39;;;;;;;18.75;3.30;;;;;;;7.01;100.00;100558.91;5058608;28;21120;-63
2021/11/08 01:31:08;;;;;;;19.67;3.58;;;;;;;7.02;100.00;100557.97;5073499;28;20162;-60
2021/11/08 01:33:36;;;;;;;28.27;4.45;;;;;;;6.96;100.00;100559.13;5057378;28;20132;-60
2021/11/08 01:38:39;;;;;;;19.23;3.38;;;;;;;6.94;100.00;100563.59;5063103;28;20069;-61
2021/11/08 01:41:07;;;;;;;19.48;3.83;;;;;;;6.93;100.00;100568.88;5053747;28;20045;-62
2021/11/08 01:43:35;;;;;;;17.48;3.13;;;;;;;6.93;100.00;100574.09;5059268;28;20055;-62
2021/11/08 01:46:04;;;;;;;13.77;3.40;;;;;;;6.95;100.00;100572.28;5060422;28;20074;-62
2021/11/08 01:48:32;;;;;;;19.58;3.88;;;;;;;6.94;100.00;100567.97;5064288;28;20140;-63
2021/11/08 01:51:00;;;;;;;16.98;3.55;;;;;;;6.93;100.00;100567.09;5058956;28;20041;-63
2021/11/08 01:53:28;;;;;;;12.73;3.90;;;;;;;6.91;100.00;100571.56;5055086;28;20061;-61
2021/11/08 01:56:00;;;;;;;22.20;3.13;;;;;;;6.85;100.00;100566.59;5056143;28;20502;-62
2021/11/08 01:58:29;;;;;;;25.05;4.70;;;;;;;6.84;100.00;100573.63;5064606;28;20059;-62
2021/11/08 02:00:58;;;;;;;27.08;4.47;;;;;;;6.84;100.00;100573.63;5059129;28;20049;-62
2021/11/08 02:03:25;;;;;;;25.70;4.32;;;;;;;6.86;100.00;100570.91;5056202;28;20839;-62
2021/11/08 02:05:53;;;;;;;23.08;4.65;;;;;;;6.93;100.00;100576.72;5062007;28;20171;-62
2021/11/08 02:08:22;;;;;;;22.73;4.10;;;;;;;6.94;100.00;100584.50;5057654;28;20075;-61
2021/11/08 02:10:50;;;;;;;23.35;4.78;;;;;;;6.94;100.00;100586.28;5059182;28;20531;-61
2021/11/08 02:13:18;;;;;;;22.13;3.40;;;;;;;6.97;100.00;100579.13;5057507;28;20140;-61
2021/11/08 02:15:45;;;;;;;16.08;3.70;;;;;;;6.99;100.00;100590.41;5053753;28;20045;-61
2021/11/08 02:18:13;;;;;;;17.05;3.88;;;;;;;6.95;100.00;100590.59;5055304;28;20044;-61
2021/11/08 02:20:43;;;;;;;21.05;3.22;;;;;;;6.95;100.00;100596.69;5056809;28;20049;-61
2021/11/08 02:23:11;;;;;;;16.23;3.85;;;;;;;6.94;100.00;100583.66;5052203;28;20056;-61
2021/11/08 02:25:39;;;;;;;19.38;4.05;;;;;;;6.94;100.00;100594.13;5056485;28;20045;-62
2021/11/08 02:28:09;;;;;;;17.23;3.60;;;;;;;6.96;100.00;100595.75;5055368;28;20055;-61
2021/11/08 02:30:37;;;;;;;29.55;5.25;;;;;;;6.94;100.00;100605.44;5076516;22;20055;-67
2021/11/08 02:33:07;;;;;;;17.33;4.20;;;;;;;6.94;100.00;100589.75;5063043;28;20064;-67
2021/11/08 02:35:36;;;;;;;17.65;3.25;;;;;;;6.95;100.00;100603.69;5060803;28;20051;-68
2021/11/08 02:38:05;;;;;;;20.52;4.40;;;;;;;6.97;100.00;100596.59;5055611;28;20080;-67
2021/11/08 02:40:32;;;;;;;19.35;4.50;;;;;;;6.92;100.00;100607.28;5043856;28;20041;-67
2021/11/08 02:43:03;;;;;;;16.58;3.63;;;;;;;7.00;100.00;100610.41;5064883;28;20078;-69
2021/11/08 02:45:31;;;;;;;28.20;4.32;;;;;;;6.98;100.00;100612.25;5041603;28;20910;-68
2021/11/08 02:47:59;;;;;;;18.23;3.80;;;;;;;7.03;100.00;100614.66;5059431;28;20500;-68
2021/11/08 02:50:30;;;;;;;19.33;3.22;;;;;;;7.00;100.00;100605.16;5060805;28;20053;-68
2021/11/08 02:52:58;;;;;;;14.18;3.75;;;;;;;6.98;100.00;100611.38;5065490;28;20045;-67
2021/11/08 02:55:27;;;;;;;22.33;4.28;;;;;;;6.95;100.00;100612.38;5043766;28;20256;-66
2021/11/08 02:57:55;;;;;;;18.00;4.95;;;;;;;6.96;100.00;100611.47;5064685;28;20045;-68
2021/11/08 03:00:25;;;;;;;21.63;3.88;;;;;;;6.97;100.00;100617.53;5040990;28;20419;-68
2021/11/08 03:02:52;;;;;;;14.68;3.00;;;;;;;7.02;100.00;100620.78;5061969;28;20084;-68
2021/11/08 03:05:30;;;;;;;16.25;3.83;;;;;;;6.99;100.00;100618.34;5061355;28;20174;-68
2021/11/08 03:08:05;;;;;;;20.05;4.60;;;;;;;7.02;100.00;100628.66;5053334;28;20040;-68
2021/11/08 03:10:35;;;;;;;16.60;3.33;;;;;;;7.09;100.00;100624.84;5048611;28;20406;-68
2021/11/08 03:13:12;;;;;;;25.30;3.85;;;;;;;7.04;100.00;100629.44;5064570;28;20052;-68
2021/11/08 03:18:12;;;;;;;17.25;3.75;;;;;;;7.05;100.00;100636.38;5063685;28;20048;-68
2021/11/08 03:20:39;;;;;;;15.02;3.33;;;;;;;7.11;100.00;100638.72;5048893;28;20045;-68
2021/11/08 03:23:07;;;;;;;15.30;3.17;;;;;;;7.08;100.00;100639.72;5067521;28;20044;-68
2021/11/08 03:25:57;;;;;;;18.95;3.78;;;;;;;7.07;100.00;100645.88;5060306;28;20507;-69
2021/11/08 03:28:24;;;;;;;15.98;3.65;;;;;;;7.03;100.00;100648.69;5065594;28;20084;-68
2021/11/08 03:30:52;;;;;;;13.30;2.67;;;;;;;7.04;100.00;100651.22;5065793;28;20057;-68
2021/11/08 03:33:19;;;;;;;10.85;3.10;;;;;;;7.07;100.00;100642.41;5063921;28;20556;-68
2021/11/08 03:35:46;;;;;;;15.50;3.78;;;;;;;7.08;100.00;100646.72;5064263;28;20048;-69
2021/11/08 03:38:14;;;;;;;16.90;4.13;;;;;;;7.07;100.00;100660.75;5064360;28;20581;-69
2021/11/08 03:40:45;;;;;;;17.02;3.10;;;;;;;7.04;100.00;100669.56;5059776;28;20052;-68
2021/11/08 03:43:15;;;;;;;14.18;2.97;;;;;;;7.03;100.00;100662.63;5065660;28;20044;-68
2021/11/08 03:45:43;;;;;;;13.38;3.25;;;;;;;7.01;100.00;100659.22;5047662;28;20489;-69
2021/11/08 03:48:12;;;;;;;14.68;3.40;;;;;;;7.09;100.00;100678.06;5059010;28;20059;-68
2021/11/08 03:50:40;;;;;;;11.65;3.13;;;;;;;7.14;100.00;100671.78;5067452;28;20485;-68
2021/11/08 03:53:11;;;;;;;15.30;3.90;;;;;;;7.11;100.00;100683.22;5067895;28;20472;-68
2021/11/08 03:55:38;;;;;;;13.82;4.15;;;;;;;7.06;100.00;100686.03;5048611;28;20052;-69
2021/11/08 03:58:05;;;;;;;11.85;3.17;;;;;;;7.06;100.00;100686.03;5067086;28;20055;-67
2021/11/08 04:00:33;;;;;;;17.25;3.67;;;;;;;7.12;100.00;100689.31;5066228;28;20040;-69
2021/11/08 04:03:01;;;;;;;16.00;4.38;;;;;;;7.14;100.00;100697.94;5074180;28;20044;-70
2021/11/08 04:05:30;;;;;;;11.93;3.90;;;;;;;7.08;100.00;100689.44;5064173;28;20051;-68
2021/11/08 04:08:04;;;;;;;11.88;3.60;;;;;;;7.04;100.00;100695.72;5088495;28;20170;-67
2021/11/08 04:10:31;;;;;;;19.52;3.60;;;;;;;7.06;100.00;100696.50;5064936;28;20064;-67
2021/11/08 04:13:04;;;;;;;19.08;4.10;;;;;;;7.17;100.00;100700.44;5062036;28;20076;-68
2021/11/08 04:15:38;;;;;;;17.15;3.95;;;;;;;7.13;100.00;100704.13;5066761;28;20052;-68
2021/11/08 04:18:14;;;;;;;19.27;3.85;;;;;;;7.16;100.00;100706.56;5073909;28;20049;-68
2021/11/08 04:20:43;;;;;;;19.17;4.00;;;;;;;7.27;100.00;100717.44;5073820;28;20496;-68
2021/11/08 04:23:15;;;;;;;13.18;3.85;;;;;;;7.21;100.00;100704.63;5062494;28;20053;-69
2021/11/08 04:25:43;;;;;;;20.92;4.28;;;;;;;7.22;100.00;100706.31;5066457;28;20049;-66
2021/11/08 04:28:10;;;;;;;21.27;4.00;;;;;;;7.23;100.00;100716.72;5053101;28;20056;-67
2021/11/08 04:30:41;;;;;;;24.63;4.85;;;;;;;7.23;100.00;100721.97;5046455;28;20049;-67
2021/11/08 04:33:22;;;;;;;16.95;3.83;;;;;;;7.24;100.00;100718.41;5037326;28;20428;-67
2021/11/08 04:36:02;;;;;;;17.35;4.43;;;;;;;7.21;100.00;100721.19;5063710;28;20115;-68
2021/11/08 04:38:45;;;;;;;22.75;4.55;;;;;;;7.25;100.00;100721.88;5054577;28;20056;-67
2021/11/08 04:41:22;;;;;;;16.85;4.20;;;;;;;7.26;100.00;100728.84;5061640;28;20044;-67
2021/11/08 04:46:53;;;;;;;23.88;4.70;;;;;;;7.28;100.00;100727.84;5044136;28;20049;-67
2021/11/08 04:49:15;;;;;;;22.60;4.47;;;;;;;7.32;100.00;100733.81;5060841;28;20056;-67
2021/11/08 04:54:36;;;;;;;17.42;4.75;;;;;;;7.35;100.00;100739.75;5060701;28;20052;-67
2021/11/08 05:22:09;;;;;;;21.35;4.97;;;;;;;7.47;100.00;100763.72;5062126;28;20509;-67
2021/11/08 05:24:43;;;;;;;22.93;4.63;;;;;;;7.51;100.00;100770.50;5056246;28;20063;-67
2021/11/08 05:30:06;;;;;;;18.27;4.68;;;;;;;7.55;100.00;100772.94;5060220;28;20136;-67
2021/11/08 05:32:38;;;;;;;22.52;5.07;;;;;;;7.57;100.00;100784.22;5044115;28;20036;-68
2021/11/08 05:35:08;;;;;;;24.10;5.03;;;;;;;7.55;100.00;100782.56;5040012;28;20146;-67
2021/11/08 05:37:36;;;;;;;23.00;5.35;;;;;;;7.61;100.00;100788.41;5062197;28;20079;-67
2021/11/08 05:40:09;;;;;;;19.38;4.55;;;;;;;7.64;100.00;100791.78;5055715;28;20049;-67
2021/11/08 05:42:37;;;;;;;24.05;4.65;;;;;;;7.61;100.00;100790.16;5063647;28;20453;-67
2021/11/08 05:45:07;;;;;;;15.30;4.00;;;;;;;7.67;100.00;100795.13;5077261;28;20497;-68
2021/11/08 05:47:35;;;;;;;19.40;4.22;;;;;;;7.64;100.00;100807.50;5054767;28;20041;-68
2021/11/08 05:50:02;;;;;;;19.17;4.35;;;;;;;7.64;100.00;100802.28;5055702;28;20063;-68
2021/11/08 05:52:30;;;;;;;24.80;4.97;;;;;;;7.61;100.00;100804.13;5058443;28;20075;-68
2021/11/08 05:54:57;;;;;;;16.95;4.20;;;;;;;7.67;100.00;100815.25;5061459;28;20056;-68
2021/11/08 05:57:41;;;;;;;18.65;3.65;;;;;;;7.64;100.00;100815.38;5064679;28;20048;-69
2021/11/08 06:50:06;;;;;;;18.02;4.10;;;;;;;7.84;100.00;100904.47;5061369;28;20053;-68
2021/11/08 06:52:34;;;;;;;20.52;4.95;;;;;;;7.83;100.00;100905.38;5066002;28;20131;-68
2021/11/08 06:55:05;;;;;;;19.88;4.93;;;;;;;7.92;100.00;100918.06;5060219;28;20390;-68
2021/11/08 06:57:44;;;;;;;15.00;3.92;;;;;;;7.95;100.00;100931.06;5059809;28;20052;-68
2021/11/08 07:00:13;;;;;;;22.15;4.95;;;;;;;7.98;100.00;100922.22;5053792;28;20056;-67
2021/11/08 07:02:40;;;;;;;20.08;4.15;;;;;;;7.95;100.00;100925.81;5048765;28;20496;-68
2021/11/08 07:05:08;;;;;;;17.65;4.03;;;;;;;7.95;100.00;100933.69;5061965;28;20053;-68
2021/11/08 07:07:35;;;;;;;17.55;4.45;;;;;;;8.00;100.00;100936.09;5065201;28;20044;-68
2021/11/08 07:10:04;;;;;;;19.95;4.20;;;;;;;8.08;100.00;100942.72;5061849;28;20045;-69
2021/11/08 07:12:31;;;;;;;16.80;4.40;;;;;;;8.03;100.00;100938.59;5062977;28;20056;-68
2021/11/08 07:14:59;;;;;;;21.75;4.20;;;;;;;8.10;100.00;100943.53;5059124;28;20048;-68
2021/11/08 07:17:26;;;;;;;18.95;4.20;;;;;;;8.13;100.00;100955.63;5034881;28;20143;-68
2021/11/08 07:19:53;;;;;;;23.50;4.93;;;;;;;8.13;100.00;100953.00;5065700;28;20055;-68
2021/11/08 07:22:21;;;;;;;21.73;4.43;;;;;;;8.14;100.00;100957.31;5061087;28;20036;-68
2021/11/08 07:24:48;;;;;;;19.67;4.25;;;;;;;8.10;100.00;100951.41;5060855;28;20053;-68
2021/11/08 07:27:15;;;;;;;18.42;4.43;;;;;;;8.12;100.00;100960.03;5068143;28;20039;-69
2021/11/08 07:29:42;;;;;;;13.80;3.65;;;;;;;8.17;100.00;100969.47;5057537;28;20056;-68
2021/11/08 07:32:09;;;;;;;20.25;4.30;;;;;;;8.18;100.00;100971.16;5066825;28;20055;-68
2021/11/08 07:34:36;;;;;;;22.30;4.15;;;;;;;8.16;100.00;100979.13;5041362;28;20075;-67
2021/11/08 07:37:04;;;;;;;18.63;3.60;;;;;;;8.21;100.00;100978.91;5061928;28;20049;-68
2021/11/08 07:39:31;;;;;;;19.25;4.13;;;;;;;8.22;100.00;100980.59;5058025;28;20051;-68
2021/11/08 07:41:59;;;;;;;14.43;3.90;;;;;;;8.29;100.00;100995.19;5051397;28;20040;-68
2021/11/08 07:44:26;;;;;;;15.95;3.55;;;;;;;8.24;100.00;100982.25;5062858;28;20053;-68
2021/11/08 07:46:54;;;;;;;19.17;4.28;;;;;;;8.24;100.00;100984.00;5062488;28;20160;-68
2021/11/08 07:49:21;;;;;;;16.63;3.95;;;;;;;8.23;100.00;100991.03;5059442;28;20634;-66
2021/11/08 07:51:49;;;;;;;12.60;3.75;;;;;;;8.33;100.00;100988.84;5058272;28;20048;-67
2021/11/08 07:54:17;;;;;;;17.10;4.13;;;;;;;8.34;100.00;100994.03;5063206;28;20065;-67
2021/11/08 07:56:47;;;;;;;18.17;4.00;;;;;;;8.33;100.00;100996.72;5060217;28;20077;-68
2021/11/08 07:59:16;;;;;;;14.35;3.97;;;;;;;8.34;100.00;100993.19;5054996;28;20049;-67
2021/11/08 08:01:44;;;;;;;14.98;4.45;;;;;;;8.39;100.00;101008.78;5067321;28;20536;-68
2021/11/08 08:04:11;;;;;;;14.88;4.22;;;;;;;8.39;100.00;100998.28;5056069;28;20048;-68
2021/11/08 08:06:38;;;;;;;14.55;3.80;;;;;;;8.51;100.00;101003.84;5065400;28;20132;-68
2021/11/08 08:09:05;;;;;;;18.80;3.80;;;;;;;8.58;100.00;101005.25;5053352;28;20093;-68
2021/11/08 08:11:33;;;;;;;15.40;4.63;;;;;;;8.60;100.00;101000.81;5043815;28;20155;-68
2021/11/08 08:14:00;;;;;;;17.13;4.13;;;;;;;8.60;100.00;101006.06;5066322;28;20128;-68
2021/11/08 08:16:27;;;;;;;10.05;3.13;;;;;;;8.70;100.00;101010.88;5063185;28;20053;-68
2021/11/08 08:18:55;;;;;;;16.40;3.65;;;;;;;8.82;100.00;101002.44;5066750;28;20465;-68
2021/11/08 08:21:22;;;;;;;13.93;3.47;;;;;;;9.05;100.00;101007.50;5064521;28;20544;-68
2021/11/08 08:23:55;;;;;;;19.70;4.10;;;;;;;9.12;100.00;100998.41;5065150;28;20537;-68
2021/11/08 08:26:25;;;;;;;19.65;3.90;;;;;;;9.07;100.00;101010.91;5045044;28;20041;-68
2021/11/08 08:28:53;;;;;;;12.88;4.15;;;;;;;9.09;100.00;101006.41;5046936;28;20045;-68
2021/11/08 08:33:50;;;;;;;13.60;3.65;;;;;;;9.08;100.00;101003.88;5025683;28;20397;-63
2021/11/08 08:36:17;;;;;;;17.73;3.47;;;;;;;9.16;100.00;101006.16;5025558;28;20140;-62
2021/11/08 08:38:44;;;;;;;18.63;4.15;;;;;;;9.13;100.00;101004.50;5023005;28;20055;-63
2021/11/08 08:41:11;;;;;;;16.20;4.78;;;;;;;9.01;100.00;101008.56;5030270;28;20049;-63
2021/11/08 08:43:38;;;;;;;15.35;3.58;;;;;;;9.15;100.00;101014.97;5024321;28;20501;-62
2021/11/08 08:46:06;;;;;;;13.50;4.15;;;;;;;9.22;100.00;101021.59;5022799;28;20057;-62
2021/11/08 08:48:34;;;;;;;25.05;4.05;;;;;;;9.17;100.00;101023.59;5021860;28;20056;-62
2021/11/08 08:51:02;;;;;;;19.20;3.42;;;;;;;9.19;100.00;101030.50;5028331;28;20057;-62
2021/11/08 08:53:29;;;;;;;16.23;3.70;;;;;;;9.07;100.00;101031.91;5017862;28;20056;-61
2021/11/08 08:56:18;;;;;;;16.52;3.90;;;;;;;8.85;100.00;101045.16;5018835;28;20397;-64
2021/11/08 08:58:45;;;;;;;13.32;3.47;;;;;;;8.81;100.00;101051.47;5018886;28;20045;-62
2021/11/08 09:01:12;;;;;;;21.88;4.18;;;;;;;8.83;100.00;101054.91;5019866;28;20513;-63
2021/11/08 09:03:39;;;;;;;18.10;4.40;;;;;;;8.70;100.00;101066.00;5017081;28;20188;-62
2021/11/08 09:06:06;;;;;;;12.45;3.63;;;;;;;8.70;100.00;101066.00;5022098;28;20041;-62
2021/11/08 09:08:35;;;;;;;16.20;4.07;;;;;;;8.80;100.00;101072.56;5019236;28;20509;-62
2021/11/08 09:11:02;;;;;;;14.10;3.53;;;;;;;8.90;100.00;101067.75;5019486;28;20539;-63
2021/11/08 09:13:30;;;;;;;14.48;4.10;;;;;;;9.04;100.00;101057.47;5018065;28;20053;-62
2021/11/08 09:15:57;;;;;;;17.00;3.90;;;;;;;9.13;100.00;101068.38;5025325;28;20049;-64
2021/11/08 09:18:24;;;;;;;8.80;3.08;;;;;;;9.07;100.00;101067.84;5021077;28;20584;-63
2021/11/08 09:20:51;;;;;;;13.68;3.72;;;;;;;8.91;100.00;101072.06;5022659;28;20409;-63
2021/11/08 09:23:18;;;;;;;12.75;3.25;;;;;;;8.79;100.00;101078.72;5017347;28;20057;-63
2021/11/08 09:25:46;;;;;;;13.02;3.63;;;;;;;8.85;100.00;101078.44;5021080;28;20080;-62
2021/11/08 09:28:13;;;;;;;15.48;3.60;;;;;;;8.86;100.00;101090.66;5017694;28;20410;-63
2021/11/08 09:30:44;;;;;;;14.07;4.13;;;;;;;8.73;100.00;101085.06;5023038;28;20203;-63
2021/11/08 09:33:12;;;;;;;13.38;3.55;;;;;;;8.81;100.00;101079.50;5022577;28;20053;-63
2021/11/08 09:35:46;;;;;;;17.23;3.40;;;;;;;8.84;100.00;101092.50;5018728;28;20528;-65
2021/11/08 09:38:13;;;;;;;11.48;3.50;;;;;;;8.92;100.00;101103.53;5020192;28;20053;-61
2021/11/08 09:40:41;;;;;;;21.42;3.45;;;;;;;8.90;100.00;101094.84;5030906;28;20429;-63
2021/11/08 09:43:11;;;;;;;11.48;3.08;;;;;;;9.09;100.00;101103.59;5026134;28;20403;-63
2021/11/08 09:45:40;;;;;;;16.10;3.95;;;;;;;9.18;100.00;101102.31;5020891;28;20406;-62
2021/11/08 09:48:11;;;;;;;14.48;3.53;;;;;;;9.13;100.00;101102.53;5019606;28;20057;-62
2021/11/08 09:50:41;;;;;;;18.48;4.18;;;;;;;9.01;100.00;101111.00;5022562;28;20048;-62
2021/11/08 09:53:09;;;;;;;14.93;3.83;;;;;;;9.05;100.00;101106.44;5019005;28;20048;-63
2021/11/08 09:55:36;;;;;;;10.65;2.83;;;;;;;9.03;100.00;101114.38;5014321;28;20064;-63
2021/11/08 09:58:04;;;;;;;14.13;4.28;;;;;;;9.05;100.00;101103.81;5018696;28;20054;-63
2021/11/08 10:00:37;;;;;;;19.35;4.95;;;;;;;9.12;100.00;101116.59;5012377;28;20054;-62
2021/11/08 10:03:11;;;;;;;17.65;4.15;;;;;;;9.10;100.00;101112.34;5017858;28;20149;-62
2021/11/08 10:05:42;;;;;;;14.75;3.88;;;;;;;9.05;100.00;101115.19;5014303;28;20045;-62
2021/11/08 10:08:21;;;;;;;17.67;4.07;;;;;;;9.15;100.00;101117.41;5025468;28;20128;-62
2021/11/08 10:10:50;;;;;;;20.25;5.28;;;;;;;9.25;100.00;101129.19;5018742;28;20050;-62
2021/11/08 10:13:23;;;;;;;20.50;3.47;;;;;;;9.33;100.00;101121.81;5022025;28;20049;-62
2021/11/08 10:15:55;;;;;;;19.15;3.70;;;;;;;9.26;100.00;101128.25;5013914;28;20060;-62
2021/11/08 10:18:22;;;;;;;14.10;4.30;;;;;;;9.19;100.00;101127.69;5017148;28;20060;-61
2021/11/08 10:20:53;;;;;;;19.25;3.35;;;;;;;9.25;100.00;101132.66;5020520;28;20049;-63
2021/11/08 10:23:23;;;;;;;17.25;2.75;;;;;;;9.23;100.00;101129.28;5017181;28;20050;-63
2021/11/08 10:25:51;;;;;;;15.27;3.63;;;;;;;9.18;100.00;101128.59;5012377;28;20520;-62
2021/11/08 10:28:26;;;;;;;14.30;3.35;;;;;;;9.29;100.00;101128.13;5016883;28;20504;-63
2021/11/08 10:30:58;;;;;;;17.33;3.55;;;;;;;9.37;100.00;101129.50;5018016;28;20052;-63
2021/11/08 10:33:30;;;;;;;13.18;4.18;;;;;;;9.50;100.00;101134.16;5019742;28;20059;-62
2021/11/08 10:36:04;;;;;;;17.15;4.35;;;;;;;9.72;99.03;101128.75;5012432;28;20058;-62
2021/11/08 10:38:33;;;;;;;23.30;6.15;;;;;;;10.08;96.87;101126.97;5017928;28;20065;-63
2021/11/08 10:41:17;;;;;;;17.90;4.53;;;;;;;10.34;96.34;101130.16;5018102;28;20050;-63
2021/11/08 10:43:47;;;;;;;15.20;4.40;;;;;;;10.20;95.80;101130.81;5012545;28;20049;-62
2021/11/08 10:46:18;;;;;;;23.70;4.82;;;;;;;10.06;95.18;101134.09;5013793;28;20088;-62
2021/11/08 10:49:00;;;;;;;13.43;3.67;;;;;;;9.88;96.49;101146.38;5014376;28;20057;-61
2021/11/08 10:51:29;;;;;;;13.90;4.03;;;;;;;9.86;96.03;101135.09;5018341;28;20049;-62
2021/11/08 10:54:02;;;;;;;17.75;4.32;;;;;;;9.86;95.80;101139.47;5018518;28;20055;-62
2021/11/08 10:56:32;;;;;;;20.17;4.20;;;;;;;10.22;94.80;101143.88;5017839;28;20049;-62
2021/11/08 10:59:03;;;;;;;15.48;3.53;;;;;;;10.28;93.99;101136.56;5019033;28;20054;-62
2021/11/08 11:01:32;;;;;;;19.92;3.92;;;;;;;10.21;93.84;101137.75;5011893;28;20517;-63
2021/11/08 11:04:05;;;;;;;13.98;3.38;;;;;;;10.33;94.33;101139.81;5014483;28;20041;-63
2021/11/08 11:06:37;;;;;;;22.73;4.00;;;;;;;10.47;92.62;101127.75;5021340;28;20148;-63
2021/11/08 11:09:14;;;;;;;10.65;3.00;;;;;;;10.54;92.03;101135.28;5017652;28;20071;-63
2021/11/08 11:11:42;;;;;;;15.02;3.47;;;;;;;10.57;92.31;101139.50;5014871;28;20037;-63
2021/11/08 11:14:09;;;;;;;15.05;3.03;;;;;;;10.54;91.85;101134.44;5015616;28;20038;-63
2021/11/08 11:16:40;;;;;;;14.23;3.03;;;;;;;10.42;92.18;101140.31;5014390;28;20068;-63
2021/11/08 11:19:10;;;;;;;15.82;3.10;;;;;;;10.55;92.51;101141.38;5014766;28;20365;-63
2021/11/08 11:21:39;;;;;;;15.18;2.83;;;;;;;10.59;91.79;101141.16;5016344;28;20052;-62
2021/11/08 11:24:07;;;;;;;15.73;3.22;;;;;;;10.45;91.21;101148.06;5020884;28;20046;-62
2021/11/08 11:26:48;;;;;;;14.90;3.10;;;;;;;10.43;90.66;101145.47;5024892;28;20057;-62
2021/11/08 11:29:26;;;;;;;12.52;3.00;;;;;;;10.45;90.92;101141.00;5019396;28;20057;-61
2021/11/08 11:31:54;;;;;;;17.90;3.85;;;;;;;10.65;90.70;101138.19;5037438;28;20060;-63
2021/11/08 11:34:21;;;;;;;10.07;2.78;;;;;;;10.74;90.27;101136.88;5022676;28;20050;-61
2021/11/08 11:36:48;;;;;;;14.85;2.55;;;;;;;11.00;91.59;101142.59;5022817;28;20056;-64
2021/11/08 11:39:17;;;;;;;25.25;3.33;;;;;;;11.07;89.08;101142.16;5037246;28;20442;-63
2021/11/08 11:41:46;;;;;;;16.58;3.17;;;;;;;11.05;88.35;101141.41;5026474;28;20520;-63
2021/11/08 11:44:20;;;;;;;15.52;2.50;;;;;;;11.13;88.57;101143.66;5024032;28;20048;-63
2021/11/08 11:46:50;;;;;;;17.90;2.95;;;;;;;11.22;88.38;101144.94;5023554;28;20049;-63
2021/11/08 11:49:18;;;;;;;22.63;3.63;;;;;;;11.05;88.53;101143.19;5024820;28;20053;-63
2021/11/08 11:51:50;;;;;;;18.52;3.92;;;;;;;11.01;88.64;101134.59;5029052;28;20046;-63
2021/11/08 11:54:21;;;;;;;11.77;2.53;;;;;;;10.82;90.29;101145.25;5021646;28;20081;-63
2021/11/08 11:56:50;;;;;;;14.40;2.90;;;;;;;10.83;89.82;101140.81;5027107;28;20049;-63
2021/11/08 11:59:18;;;;;;;22.40;3.20;;;;;;;10.95;88.42;101139.34;5022909;28;20057;-63
2021/11/08 12:01:45;;;;;;;14.80;2.65;;;;;;;11.07;87.85;101142.16;5017417;28;20056;-63
2021/11/08 12:04:28;;;;;;;19.85;4.05;;;;;;;11.02;87.75;101145.97;5017571;28;20132;-63
2021/11/08 12:07:02;;;;;;;20.77;3.25;;;;;;;11.15;87.40;101147.88;5035833;28;20062;-62
2021/11/08 12:09:34;;;;;;;16.63;2.38;;;;;;;11.29;86.02;101154.22;5017839;28;20135;-62
2021/11/08 12:12:03;;;;;;;16.52;3.05;;;;;;;10.99;86.88;101146.16;5020510;28;20076;-62
2021/11/08 12:14:33;;;;;;;17.40;3.20;;;;;;;11.48;85.64;101154.06;5020542;28;20095;-62
2021/11/08 12:17:05;;;;;;;17.38;3.15;;;;;;;12.07;82.32;101150.81;5017006;28;20049;-62
2021/11/08 12:19:38;;;;;;;16.55;2.75;;;;;;;12.85;77.92;101143.59;5016585;28;20053;-62
2021/11/08 12:22:15;;;;;;;10.40;2.53;;;;;;;13.72;73.50;101145.28;5017683;28;20053;-63
2021/11/08 12:25:03;;;;;;;18.90;3.30;;;;;;;15.04;67.31;101140.06;5013053;28;20041;-63
2021/11/08 12:27:41;;;;;;;16.05;2.72;;;;;;;15.89;63.91;101134.91;5025496;28;20056;-63
2021/11/08 12:30:16;;;;;;;14.52;2.80;;;;;;;16.62;61.00;101140.06;5017759;28;20056;-63
2021/11/08 12:32:55;;;;;;;15.77;2.58;;;;;;;16.39;60.77;101130.31;5018213;28;20057;-63
2021/11/08 12:35:31;;;;;;;12.68;2.25;;;;;;;16.28;60.15;101139.09;5021676;28;20051;-63
2021/11/08 12:37:58;;;;;;;11.93;2.42;;;;;;;13.86;67.28;101145.25;5016484;28;20050;-63
2021/11/08 12:40:30;;;;;;;14.98;3.47;;;;;;;12.85;72.07;101145.38;5020354;28;20105;-60
2021/11/08 12:42:58;;;;;;;14.52;2.80;;;;;;;12.55;74.58;101137.47;5020872;28;21328;-62
2021/11/08 12:45:29;;;;;;;13.77;2.33;;;;;;;12.45;76.10;101138.97;5016434;28;20136;-63
2021/11/08 12:48:06;;;;;;;14.38;2.30;;;;;;;12.03;76.97;101146.63;5014356;28;20058;-62
2021/11/08 12:50:48;;;;;;;20.10;2.65;;;;;;;11.43;78.46;101143.78;5015860;28;20426;-62
2021/11/08 12:53:21;;;;;;;16.30;3.05;;;;;;;11.06;80.31;101139.63;5017482;28;20453;-61
2021/11/08 12:55:48;;;;;;;14.40;3.00;;;;;;;10.77;82.96;101152.53;5023097;28;20056;-62
2021/11/08 12:58:15;;;;;;;14.68;2.50;;;;;;;10.60;83.91;101160.44;5024739;28;20212;-62
2021/11/08 13:00:49;;;;;;;11.10;2.60;;;;;;;10.46;84.31;101158.50;5012704;28;20092;-62
2021/11/08 13:03:27;;;;;;;14.50;2.50;;;;;;;10.33;85.73;101150.34;5017567;28;20049;-62